sensor_id;sensor_type;location;lat;lon;timestamp;P1;durP1;ratioP1;P2;durP2;ratioP2
8462;SDS011;4268;52.506;13.462;2022-12-10T00:01:05;14.00;;;11.73;;
8462;SDS011;4268;52.506;13.462;2022-12-10T00:03:32;14.07;;;12.57;;
8462;SDS011;4268;52.506;13.462;2022-12-10T00:06:01;14.83;;;11.90;;
8462;SDS011;4268;52.506;13.462;2022-12-10T00:08:28;15.53;;;13.27;;
8462;SDS011;4268;52.506;13.462;2022-12-10T00:10:53;13.20;;;11.43;;
8462;SDS011;4268;52.506;13.462;2022-12-10T00:13:19;13.13;;;11.73;;
8462;SDS011;4268;52.506;13.462;2022-12-10T00:15:45;14.07;;;11.77;;
8462;SDS011;4268;52.506;13.462;2022-12-10T00:18:10;13.10;;;11.53;;
8462;SDS011;4268;52.506;13.462;2022-12-10T00:20:36;16.07;;;12.60;;
8462;SDS011;4268;52.506;13.462;2022-12-10T00:23:02;14.60;;;11.97;;
8462;SDS011;4268;52.506;13.462;2022-12-10T00:25:29;14.17;;;11.83;;
8462;SDS011;4268;52.506;13.462;2022-12-10T00:27:54;16.63;;;13.13;;
8462;SDS011;4268;52.506;13.462;2022-12-10T00:30:19;15.07;;;12.73;;
8462;SDS011;4268;52.506;13.462;2022-12-10T00:32:45;16.30;;;12.90;;
8462;SDS011;4268;52.506;13.462;2022-12-10T00:35:10;16.53;;;12.73;;
8462;SDS011;4268;52.506;13.462;2022-12-10T00:37:36;17.00;;;13.70;;
8462;SDS011;4268;52.506;13.462;2022-12-10T00:40:02;16.13;;;12.57;;
8462;SDS011;4268;52.506;13.462;2022-12-10T00:42:28;16.60;;;12.40;;
8462;SDS011;4268;52.506;13.462;2022-12-10T00:44:53;16.50;;;13.30;;
8462;SDS011;4268;52.506;13.462;2022-12-10T00:47:19;16.67;;;12.43;;
8462;SDS011;4268;52.506;13.462;2022-12-10T00:49:44;17.33;;;12.87;;
8462;SDS011;4268;52.506;13.462;2022-12-10T00:52:10;15.97;;;12.73;;
8462;SDS011;4268;52.506;13.462;2022-12-10T00:54:35;16.47;;;12.40;;
8462;SDS011;4268;52.506;13.462;2022-12-10T00:57:01;15.77;;;12.97;;
8462;SDS011;4268;52.506;13.462;2022-12-10T00:59:26;15.90;;;12.57;;
8462;SDS011;4268;52.506;13.462;2022-12-10T01:01:51;15.23;;;12.23;;
8462;SDS011;4268;52.506;13.462;2022-12-10T01:04:17;15.70;;;12.60;;
8462;SDS011;4268;52.506;13.462;2022-12-10T01:06:44;15.13;;;13.10;;
8462;SDS011;4268;52.506;13.462;2022-12-10T01:09:12;17.13;;;12.47;;
8462;SDS011;4268;52.506;13.462;2022-12-10T01:11:41;16.03;;;12.77;;
8462;SDS011;4268;52.506;13.462;2022-12-10T01:14:08;15.73;;;12.70;;
8462;SDS011;4268;52.506;13.462;2022-12-10T01:16:36;15.70;;;13.30;;
8462;SDS011;4268;52.506;13.462;2022-12-10T01:19:02;14.73;;;11.83;;
8462;SDS011;4268;52.506;13.462;2022-12-10T01:21:28;16.83;;;12.40;;
8462;SDS011;4268;52.506;13.462;2022-12-10T01:23:54;15.73;;;12.27;;
8462;SDS011;4268;52.506;13.462;2022-12-10T01:26:23;16.07;;;12.83;;
8462;SDS011;4268;52.506;13.462;2022-12-10T01:28:50;14.97;;;12.37;;
8462;SDS011;4268;52.506;13.462;2022-12-10T01:31:21;15.53;;;12.53;;
8462;SDS011;4268;52.506;13.462;2022-12-10T01:33:49;15.63;;;13.23;;
8462;SDS011;4268;52.506;13.462;2022-12-10T01:36:16;15.83;;;12.83;;
8462;SDS011;4268;52.506;13.462;2022-12-10T01:38:47;15.80;;;12.63;;
8462;SDS011;4268;52.506;13.462;2022-12-10T01:41:14;16.27;;;13.13;;
8462;SDS011;4268;52.506;13.462;2022-12-10T01:43:50;17.37;;;13.03;;
8462;SDS011;4268;52.506;13.462;2022-12-10T01:46:18;13.87;;;11.53;;
8462;SDS011;4268;52.506;13.462;2022-12-10T01:48:44;16.77;;;12.87;;
8462;SDS011;4268;52.506;13.462;2022-12-10T01:51:11;15.53;;;12.50;;
8462;SDS011;4268;52.506;13.462;2022-12-10T01:53:38;15.67;;;12.57;;
8462;SDS011;4268;52.506;13.462;2022-12-10T01:56:04;14.87;;;12.03;;
8462;SDS011;4268;52.506;13.462;2022-12-10T01:58:29;15.67;;;12.40;;
8462;SDS011;4268;52.506;13.462;2022-12-10T02:06:17;16.17;;;13.47;;
8462;SDS011;4268;52.506;13.462;2022-12-10T02:12:06;16.70;;;13.77;;
8462;SDS011;4268;52.506;13.462;2022-12-10T02:17:24;16.67;;;13.13;;
8462;SDS011;4268;52.506;13.462;2022-12-10T02:19:59;15.87;;;12.57;;
8462;SDS011;4268;52.506;13.462;2022-12-10T02:22:31;18.30;;;13.83;;
8462;SDS011;4268;52.506;13.462;2022-12-10T02:24:59;15.83;;;12.07;;
8462;SDS011;4268;52.506;13.462;2022-12-10T02:27:29;14.97;;;12.80;;
8462;SDS011;4268;52.506;13.462;2022-12-10T02:30:05;14.90;;;12.33;;
8462;SDS011;4268;52.506;13.462;2022-12-10T02:32:33;15.63;;;12.50;;
8462;SDS011;4268;52.506;13.462;2022-12-10T02:35:04;17.90;;;16.00;;
8462;SDS011;4268;52.506;13.462;2022-12-10T02:37:51;17.30;;;13.40;;
8462;SDS011;4268;52.506;13.462;2022-12-10T02:40:24;16.20;;;12.43;;
8462;SDS011;4268;52.506;13.462;2022-12-10T02:42:55;16.93;;;13.77;;
8462;SDS011;4268;52.506;13.462;2022-12-10T02:45:22;17.30;;;13.43;;
8462;SDS011;4268;52.506;13.462;2022-12-10T02:47:49;16.93;;;13.50;;
8462;SDS011;4268;52.506;13.462;2022-12-10T02:50:18;17.20;;;13.40;;
8462;SDS011;4268;52.506;13.462;2022-12-10T02:52:46;18.77;;;14.33;;
8462;SDS011;4268;52.506;13.462;2022-12-10T02:55:12;20.03;;;14.97;;
8462;SDS011;4268;52.506;13.462;2022-12-10T03:00:31;18.23;;;14.10;;
8462;SDS011;4268;52.506;13.462;2022-12-10T03:08:18;16.93;;;13.63;;
8462;SDS011;4268;52.506;13.462;2022-12-10T03:10:57;19.73;;;14.73;;
8462;SDS011;4268;52.506;13.462;2022-12-10T03:14:16;18.63;;;14.83;;
8462;SDS011;4268;52.506;13.462;2022-12-10T03:16:29;20.43;;;15.10;;
8462;SDS011;4268;52.506;13.462;2022-12-10T03:19:00;19.43;;;15.20;;
8462;SDS011;4268;52.506;13.462;2022-12-10T03:21:30;20.37;;;14.83;;
8462;SDS011;4268;52.506;13.462;2022-12-10T03:23:59;20.03;;;14.47;;
8462;SDS011;4268;52.506;13.462;2022-12-10T03:26:25;19.93;;;15.13;;
8462;SDS011;4268;52.506;13.462;2022-12-10T03:28:53;18.23;;;13.93;;
8462;SDS011;4268;52.506;13.462;2022-12-10T03:31:26;18.30;;;14.30;;
8462;SDS011;4268;52.506;13.462;2022-12-10T03:33:52;19.50;;;15.67;;
8462;SDS011;4268;52.506;13.462;2022-12-10T03:36:19;20.60;;;15.60;;
8462;SDS011;4268;52.506;13.462;2022-12-10T03:38:46;18.90;;;15.20;;
8462;SDS011;4268;52.506;13.462;2022-12-10T03:41:11;20.30;;;15.07;;
8462;SDS011;4268;52.506;13.462;2022-12-10T03:43:48;19.80;;;15.73;;
8462;SDS011;4268;52.506;13.462;2022-12-10T03:46:15;20.77;;;14.50;;
8462;SDS011;4268;52.506;13.462;2022-12-10T03:48:40;20.37;;;15.37;;
8462;SDS011;4268;52.506;13.462;2022-12-10T03:51:06;20.27;;;15.50;;
8462;SDS011;4268;52.506;13.462;2022-12-10T03:53:31;20.00;;;15.40;;
8462;SDS011;4268;52.506;13.462;2022-12-10T03:55:57;22.17;;;16.63;;
8462;SDS011;4268;52.506;13.462;2022-12-10T03:58:22;20.90;;;16.17;;
8462;SDS011;4268;52.506;13.462;2022-12-10T04:00:48;20.60;;;15.10;;
8462;SDS011;4268;52.506;13.462;2022-12-10T04:03:14;20.13;;;14.70;;
8462;SDS011;4268;52.506;13.462;2022-12-10T04:05:39;21.30;;;14.93;;
8462;SDS011;4268;52.506;13.462;2022-12-10T04:08:05;19.80;;;15.00;;
8462;SDS011;4268;52.506;13.462;2022-12-10T04:10:34;21.40;;;15.33;;
8462;SDS011;4268;52.506;13.462;2022-12-10T04:13:00;21.37;;;15.40;;
8462;SDS011;4268;52.506;13.462;2022-12-10T04:15:44;20.73;;;15.90;;
8462;SDS011;4268;52.506;13.462;2022-12-10T04:18:28;23.80;;;16.03;;
8462;SDS011;4268;52.506;13.462;2022-12-10T04:20:54;20.83;;;15.77;;
8462;SDS011;4268;52.506;13.462;2022-12-10T04:23:38;19.47;;;15.53;;
8462;SDS011;4268;52.506;13.462;2022-12-10T04:26:32;20.20;;;14.57;;
8462;SDS011;4268;52.506;13.462;2022-12-10T04:29:16;21.20;;;16.47;;
8462;SDS011;4268;52.506;13.462;2022-12-10T04:31:43;20.40;;;15.70;;
8462;SDS011;4268;52.506;13.462;2022-12-10T04:34:08;19.57;;;15.27;;
8462;SDS011;4268;52.506;13.462;2022-12-10T04:36:34;19.30;;;15.17;;
8462;SDS011;4268;52.506;13.462;2022-12-10T04:38:59;19.23;;;15.20;;
8462;SDS011;4268;52.506;13.462;2022-12-10T04:41:25;19.30;;;15.57;;
8462;SDS011;4268;52.506;13.462;2022-12-10T04:43:51;20.60;;;15.57;;
8462;SDS011;4268;52.506;13.462;2022-12-10T04:46:17;20.17;;;15.60;;
8462;SDS011;4268;52.506;13.462;2022-12-10T04:48:42;17.80;;;15.00;;
8462;SDS011;4268;52.506;13.462;2022-12-10T04:51:08;17.60;;;14.50;;
8462;SDS011;4268;52.506;13.462;2022-12-10T04:53:33;18.67;;;14.80;;
8462;SDS011;4268;52.506;13.462;2022-12-10T04:55:59;18.93;;;15.33;;
8462;SDS011;4268;52.506;13.462;2022-12-10T04:58:26;18.10;;;14.40;;
8462;SDS011;4268;52.506;13.462;2022-12-10T05:01:00;18.90;;;14.77;;
8462;SDS011;4268;52.506;13.462;2022-12-10T05:03:29;19.37;;;15.23;;
8462;SDS011;4268;52.506;13.462;2022-12-10T05:06:00;19.13;;;15.50;;
8462;SDS011;4268;52.506;13.462;2022-12-10T05:08:29;19.17;;;14.50;;
8462;SDS011;4268;52.506;13.462;2022-12-10T05:10:55;15.90;;;13.80;;
8462;SDS011;4268;52.506;13.462;2022-12-10T05:13:25;16.67;;;13.87;;
8462;SDS011;4268;52.506;13.462;2022-12-10T05:15:50;20.93;;;15.23;;
8462;SDS011;4268;52.506;13.462;2022-12-10T05:18:16;17.07;;;13.57;;
8462;SDS011;4268;52.506;13.462;2022-12-10T05:20:41;20.03;;;14.27;;
8462;SDS011;4268;52.506;13.462;2022-12-10T05:23:07;17.20;;;13.77;;
8462;SDS011;4268;52.506;13.462;2022-12-10T05:25:57;16.53;;;14.03;;
8462;SDS011;4268;52.506;13.462;2022-12-10T05:28:32;15.30;;;13.13;;
8462;SDS011;4268;52.506;13.462;2022-12-10T05:31:00;16.47;;;13.60;;
8462;SDS011;4268;52.506;13.462;2022-12-10T05:33:26;17.20;;;13.80;;
8462;SDS011;4268;52.506;13.462;2022-12-10T05:35:53;17.77;;;13.70;;
8462;SDS011;4268;52.506;13.462;2022-12-10T05:38:20;18.27;;;14.87;;
8462;SDS011;4268;52.506;13.462;2022-12-10T05:40:45;16.67;;;13.87;;
8462;SDS011;4268;52.506;13.462;2022-12-10T05:43:11;16.70;;;13.70;;
8462;SDS011;4268;52.506;13.462;2022-12-10T05:45:36;15.50;;;13.33;;
8462;SDS011;4268;52.506;13.462;2022-12-10T05:48:02;16.57;;;13.40;;
8462;SDS011;4268;52.506;13.462;2022-12-10T05:50:27;17.00;;;13.57;;
8462;SDS011;4268;52.506;13.462;2022-12-10T05:52:53;13.87;;;11.77;;
8462;SDS011;4268;52.506;13.462;2022-12-10T05:55:18;14.17;;;12.17;;
8462;SDS011;4268;52.506;13.462;2022-12-10T05:57:44;15.00;;;12.83;;
8462;SDS011;4268;52.506;13.462;2022-12-10T06:00:09;16.20;;;13.43;;
8462;SDS011;4268;52.506;13.462;2022-12-10T06:02:35;14.40;;;12.80;;
8462;SDS011;4268;52.506;13.462;2022-12-10T06:05:01;14.83;;;12.70;;
8462;SDS011;4268;52.506;13.462;2022-12-10T06:07:26;15.13;;;12.73;;
8462;SDS011;4268;52.506;13.462;2022-12-10T06:09:54;14.27;;;12.13;;
8462;SDS011;4268;52.506;13.462;2022-12-10T06:12:19;14.60;;;11.73;;
8462;SDS011;4268;52.506;13.462;2022-12-10T06:14:45;14.23;;;12.60;;
8462;SDS011;4268;52.506;13.462;2022-12-10T06:17:11;13.50;;;12.10;;
8462;SDS011;4268;52.506;13.462;2022-12-10T06:19:36;14.00;;;11.40;;
8462;SDS011;4268;52.506;13.462;2022-12-10T06:22:02;14.13;;;12.27;;
8462;SDS011;4268;52.506;13.462;2022-12-10T06:24:28;13.30;;;11.80;;
8462;SDS011;4268;52.506;13.462;2022-12-10T06:26:54;12.93;;;11.57;;
8462;SDS011;4268;52.506;13.462;2022-12-10T06:29:19;14.03;;;12.13;;
8462;SDS011;4268;52.506;13.462;2022-12-10T06:31:45;14.93;;;13.40;;
8462;SDS011;4268;52.506;13.462;2022-12-10T06:34:10;13.80;;;11.73;;
8462;SDS011;4268;52.506;13.462;2022-12-10T06:36:36;13.50;;;10.90;;
8462;SDS011;4268;52.506;13.462;2022-12-10T06:39:01;14.80;;;11.90;;
8462;SDS011;4268;52.506;13.462;2022-12-10T06:41:27;12.70;;;11.33;;
8462;SDS011;4268;52.506;13.462;2022-12-10T06:43:53;14.03;;;11.77;;
8462;SDS011;4268;52.506;13.462;2022-12-10T06:46:19;13.23;;;11.10;;
8462;SDS011;4268;52.506;13.462;2022-12-10T06:48:45;14.63;;;12.73;;
8462;SDS011;4268;52.506;13.462;2022-12-10T06:51:12;14.57;;;12.27;;
8462;SDS011;4268;52.506;13.462;2022-12-10T06:53:38;13.93;;;12.23;;
8462;SDS011;4268;52.506;13.462;2022-12-10T06:56:05;12.70;;;11.40;;
8462;SDS011;4268;52.506;13.462;2022-12-10T06:58:32;12.13;;;10.83;;
8462;SDS011;4268;52.506;13.462;2022-12-10T07:01:05;12.90;;;11.60;;
8462;SDS011;4268;52.506;13.462;2022-12-10T07:03:32;12.60;;;11.00;;
8462;SDS011;4268;52.506;13.462;2022-12-10T07:05:58;12.47;;;11.17;;
8462;SDS011;4268;52.506;13.462;2022-12-10T07:08:24;13.03;;;11.60;;
8462;SDS011;4268;52.506;13.462;2022-12-10T07:10:50;13.40;;;11.60;;
8462;SDS011;4268;52.506;13.462;2022-12-10T07:13:15;12.47;;;11.17;;
8462;SDS011;4268;52.506;13.462;2022-12-10T07:15:41;12.83;;;11.63;;
8462;SDS011;4268;52.506;13.462;2022-12-10T07:18:06;11.87;;;10.60;;
8462;SDS011;4268;52.506;13.462;2022-12-10T07:20:32;12.30;;;11.10;;
8462;SDS011;4268;52.506;13.462;2022-12-10T07:22:57;12.67;;;11.37;;
8462;SDS011;4268;52.506;13.462;2022-12-10T07:25:23;12.87;;;11.53;;
8462;SDS011;4268;52.506;13.462;2022-12-10T07:27:48;11.13;;;10.07;;
8462;SDS011;4268;52.506;13.462;2022-12-10T07:30:14;11.70;;;10.50;;
8462;SDS011;4268;52.506;13.462;2022-12-10T07:32:39;12.57;;;11.27;;
8462;SDS011;4268;52.506;13.462;2022-12-10T07:35:05;12.40;;;11.10;;
8462;SDS011;4268;52.506;13.462;2022-12-10T07:37:31;12.27;;;10.97;;
8462;SDS011;4268;52.506;13.462;2022-12-10T07:39:57;19.17;;;17.10;;
8462;SDS011;4268;52.506;13.462;2022-12-10T07:42:23;13.70;;;12.40;;
8462;SDS011;4268;52.506;13.462;2022-12-10T07:44:48;15.40;;;13.80;;
8462;SDS011;4268;52.506;13.462;2022-12-10T07:47:14;16.23;;;14.40;;
8462;SDS011;4268;52.506;13.462;2022-12-10T07:49:40;12.70;;;11.40;;
8462;SDS011;4268;52.506;13.462;2022-12-10T07:52:06;11.40;;;10.23;;
8462;SDS011;4268;52.506;13.462;2022-12-10T07:54:32;11.90;;;10.53;;
8462;SDS011;4268;52.506;13.462;2022-12-10T07:56:58;12.20;;;11.00;;
8462;SDS011;4268;52.506;13.462;2022-12-10T07:59:23;11.93;;;10.77;;
8462;SDS011;4268;52.506;13.462;2022-12-10T08:01:49;12.23;;;10.63;;
8462;SDS011;4268;52.506;13.462;2022-12-10T08:04:14;11.53;;;10.33;;
8462;SDS011;4268;52.506;13.462;2022-12-10T08:06:40;12.47;;;11.33;;
8462;SDS011;4268;52.506;13.462;2022-12-10T08:09:05;11.33;;;10.13;;
8462;SDS011;4268;52.506;13.462;2022-12-10T08:11:31;11.20;;;10.10;;
8462;SDS011;4268;52.506;13.462;2022-12-10T08:13:57;10.93;;;9.83;;
8462;SDS011;4268;52.506;13.462;2022-12-10T08:16:24;10.60;;;9.60;;
8462;SDS011;4268;52.506;13.462;2022-12-10T08:18:52;11.47;;;10.30;;
8462;SDS011;4268;52.506;13.462;2022-12-10T08:21:19;11.13;;;10.03;;
8462;SDS011;4268;52.506;13.462;2022-12-10T08:23:47;11.17;;;10.10;;
8462;SDS011;4268;52.506;13.462;2022-12-10T08:26:13;11.60;;;10.47;;
8462;SDS011;4268;52.506;13.462;2022-12-10T08:28:41;12.80;;;11.60;;
8462;SDS011;4268;52.506;13.462;2022-12-10T08:31:07;11.27;;;10.17;;
8462;SDS011;4268;52.506;13.462;2022-12-10T08:33:34;12.70;;;11.40;;
8462;SDS011;4268;52.506;13.462;2022-12-10T08:36:01;11.90;;;10.70;;
8462;SDS011;4268;52.506;13.462;2022-12-10T08:38:30;11.60;;;10.40;;
8462;SDS011;4268;52.506;13.462;2022-12-10T08:40:55;12.83;;;11.57;;
8462;SDS011;4268;52.506;13.462;2022-12-10T08:43:21;11.93;;;10.73;;
8462;SDS011;4268;52.506;13.462;2022-12-10T08:45:47;11.73;;;10.60;;
8462;SDS011;4268;52.506;13.462;2022-12-10T08:48:12;11.77;;;10.63;;
8462;SDS011;4268;52.506;13.462;2022-12-10T08:50:38;12.10;;;10.70;;
8462;SDS011;4268;52.506;13.462;2022-12-10T08:53:04;11.40;;;10.20;;
8462;SDS011;4268;52.506;13.462;2022-12-10T08:55:29;11.97;;;10.77;;
8462;SDS011;4268;52.506;13.462;2022-12-10T08:57:56;11.47;;;10.30;;
8462;SDS011;4268;52.506;13.462;2022-12-10T09:00:22;12.00;;;10.73;;
8462;SDS011;4268;52.506;13.462;2022-12-10T09:02:49;11.63;;;10.53;;
8462;SDS011;4268;52.506;13.462;2022-12-10T09:05:14;12.00;;;10.80;;
8462;SDS011;4268;52.506;13.462;2022-12-10T09:07:40;11.53;;;10.43;;
8462;SDS011;4268;52.506;13.462;2022-12-10T09:10:06;12.07;;;10.80;;
8462;SDS011;4268;52.506;13.462;2022-12-10T09:12:35;12.10;;;10.90;;
8462;SDS011;4268;52.506;13.462;2022-12-10T09:15:00;12.03;;;10.83;;
8462;SDS011;4268;52.506;13.462;2022-12-10T09:17:26;13.10;;;11.73;;
8462;SDS011;4268;52.506;13.462;2022-12-10T09:19:51;12.33;;;11.03;;
8462;SDS011;4268;52.506;13.462;2022-12-10T09:22:17;12.50;;;11.27;;
8462;SDS011;4268;52.506;13.462;2022-12-10T09:24:42;12.00;;;10.90;;
8462;SDS011;4268;52.506;13.462;2022-12-10T09:27:08;12.20;;;10.83;;
8462;SDS011;4268;52.506;13.462;2022-12-10T09:29:33;12.47;;;11.27;;
8462;SDS011;4268;52.506;13.462;2022-12-10T09:31:59;11.83;;;10.73;;
8462;SDS011;4268;52.506;13.462;2022-12-10T09:34:24;12.53;;;11.30;;
8462;SDS011;4268;52.506;13.462;2022-12-10T09:36:50;15.57;;;13.97;;
8462;SDS011;4268;52.506;13.462;2022-12-10T09:39:15;30.53;;;27.23;;
8462;SDS011;4268;52.506;13.462;2022-12-10T09:41:46;18.70;;;16.70;;
8462;SDS011;4268;52.506;13.462;2022-12-10T09:47:16;12.87;;;11.00;;
8462;SDS011;4268;52.506;13.462;2022-12-10T09:52:45;13.53;;;12.20;;
8462;SDS011;4268;52.506;13.462;2022-12-10T09:55:14;13.40;;;12.03;;
8462;SDS011;4268;52.506;13.462;2022-12-10T09:57:43;13.10;;;11.80;;
8462;SDS011;4268;52.506;13.462;2022-12-10T10:02:58;13.43;;;12.10;;
8462;SDS011;4268;52.506;13.462;2022-12-10T10:05:29;12.90;;;11.60;;
8462;SDS011;4268;52.506;13.462;2022-12-10T10:07:57;13.17;;;11.87;;
8462;SDS011;4268;52.506;13.462;2022-12-10T10:10:35;12.50;;;11.20;;
8462;SDS011;4268;52.506;13.462;2022-12-10T10:15:53;15.30;;;13.70;;
8462;SDS011;4268;52.506;13.462;2022-12-10T10:18:37;17.67;;;15.17;;
8462;SDS011;4268;52.506;13.462;2022-12-10T10:21:07;15.27;;;13.67;;
8462;SDS011;4268;52.506;13.462;2022-12-10T10:23:46;14.07;;;12.67;;
8462;SDS011;4268;52.506;13.462;2022-12-10T10:26:12;14.40;;;12.90;;
8462;SDS011;4268;52.506;13.462;2022-12-10T10:28:38;13.93;;;12.50;;
8462;SDS011;4268;52.506;13.462;2022-12-10T10:31:08;13.50;;;12.20;;
8462;SDS011;4268;52.506;13.462;2022-12-10T10:33:50;14.53;;;13.03;;
8462;SDS011;4268;52.506;13.462;2022-12-10T10:39:28;13.20;;;11.63;;
8462;SDS011;4268;52.506;13.462;2022-12-10T10:41:56;13.03;;;11.83;;
8462;SDS011;4268;52.506;13.462;2022-12-10T10:44:24;13.20;;;12.00;;
8462;SDS011;4268;52.506;13.462;2022-12-10T10:46:53;13.60;;;12.30;;
8462;SDS011;4268;52.506;13.462;2022-12-10T10:51:51;14.33;;;12.83;;
8462;SDS011;4268;52.506;13.462;2022-12-10T10:54:33;15.20;;;13.23;;
8462;SDS011;4268;52.506;13.462;2022-12-10T10:57:03;13.97;;;12.57;;
8462;SDS011;4268;52.506;13.462;2022-12-10T10:59:54;13.73;;;12.33;;
8462;SDS011;4268;52.506;13.462;2022-12-10T11:02:35;13.00;;;11.70;;
8462;SDS011;4268;52.506;13.462;2022-12-10T11:05:21;14.67;;;13.10;;
8462;SDS011;4268;52.506;13.462;2022-12-10T11:07:56;14.70;;;13.23;;
8462;SDS011;4268;52.506;13.462;2022-12-10T11:10:24;13.93;;;12.57;;
8462;SDS011;4268;52.506;13.462;2022-12-10T11:12:54;13.40;;;12.10;;
8462;SDS011;4268;52.506;13.462;2022-12-10T11:17:50;14.30;;;12.90;;
8462;SDS011;4268;52.506;13.462;2022-12-10T11:20:18;14.07;;;12.63;;
8462;SDS011;4268;52.506;13.462;2022-12-10T11:23:02;12.77;;;11.57;;
8462;SDS011;4268;52.506;13.462;2022-12-10T11:34:00;14.57;;;13.07;;
8462;SDS011;4268;52.506;13.462;2022-12-10T11:45:15;14.20;;;12.80;;
8462;SDS011;4268;52.506;13.462;2022-12-10T11:47:56;14.93;;;13.43;;
8462;SDS011;4268;52.506;13.462;2022-12-10T11:55:48;14.17;;;12.67;;
8462;SDS011;4268;52.506;13.462;2022-12-10T12:01:13;15.13;;;13.63;;
8462;SDS011;4268;52.506;13.462;2022-12-10T12:04:16;15.27;;;13.63;;
8462;SDS011;4268;52.506;13.462;2022-12-10T12:15:37;14.17;;;12.70;;
8462;SDS011;4268;52.506;13.462;2022-12-10T12:18:20;15.27;;;13.70;;
8462;SDS011;4268;52.506;13.462;2022-12-10T12:21:05;14.00;;;12.60;;
8462;SDS011;4268;52.506;13.462;2022-12-10T12:23:55;14.93;;;12.73;;
8462;SDS011;4268;52.506;13.462;2022-12-10T12:26:43;14.00;;;12.50;;
8462;SDS011;4268;52.506;13.462;2022-12-10T12:29:35;15.67;;;12.80;;
8462;SDS011;4268;52.506;13.462;2022-12-10T12:32:21;14.53;;;12.97;;
8462;SDS011;4268;52.506;13.462;2022-12-10T12:34:53;14.13;;;12.53;;
8462;SDS011;4268;52.506;13.462;2022-12-10T12:37:36;14.20;;;12.80;;
8462;SDS011;4268;52.506;13.462;2022-12-10T12:40:29;14.13;;;12.27;;
8462;SDS011;4268;52.506;13.462;2022-12-10T12:43:02;13.67;;;12.23;;
8462;SDS011;4268;52.506;13.462;2022-12-10T12:45:36;14.63;;;12.63;;
8462;SDS011;4268;52.506;13.462;2022-12-10T12:48:14;15.63;;;13.37;;
8462;SDS011;4268;52.506;13.462;2022-12-10T12:50:54;15.03;;;12.77;;
8462;SDS011;4268;52.506;13.462;2022-12-10T12:53:24;14.87;;;13.37;;
8462;SDS011;4268;52.506;13.462;2022-12-10T12:56:14;13.07;;;11.67;;
8462;SDS011;4268;52.506;13.462;2022-12-10T13:04:12;13.50;;;12.10;;
8462;SDS011;4268;52.506;13.462;2022-12-10T13:06:38;14.37;;;12.90;;
8462;SDS011;4268;52.506;13.462;2022-12-10T13:11:38;13.43;;;12.03;;
8462;SDS011;4268;52.506;13.462;2022-12-10T13:22:03;13.27;;;11.87;;
8462;SDS011;4268;52.506;13.462;2022-12-10T13:29:47;13.37;;;12.07;;
8462;SDS011;4268;52.506;13.462;2022-12-10T13:32:21;13.60;;;12.20;;
8462;SDS011;4268;52.506;13.462;2022-12-10T13:37:32;13.50;;;12.10;;
8462;SDS011;4268;52.506;13.462;2022-12-10T13:40:18;13.47;;;12.07;;
8462;SDS011;4268;52.506;13.462;2022-12-10T13:42:56;14.13;;;12.40;;
8462;SDS011;4268;52.506;13.462;2022-12-10T13:48:48;13.77;;;12.20;;
8462;SDS011;4268;52.506;13.462;2022-12-10T13:51:25;14.30;;;12.80;;
8462;SDS011;4268;52.506;13.462;2022-12-10T13:54:35;15.73;;;14.00;;
8462;SDS011;4268;52.506;13.462;2022-12-10T14:00:19;13.40;;;11.97;;
8462;SDS011;4268;52.506;13.462;2022-12-10T14:05:51;13.40;;;12.00;;
8462;SDS011;4268;52.506;13.462;2022-12-10T14:08:20;13.50;;;12.10;;
8462;SDS011;4268;52.506;13.462;2022-12-10T14:10:58;14.53;;;13.03;;
8462;SDS011;4268;52.506;13.462;2022-12-10T14:13:40;19.37;;;16.87;;
8462;SDS011;4268;52.506;13.462;2022-12-10T14:16:12;18.17;;;16.20;;
8462;SDS011;4268;52.506;13.462;2022-12-10T14:18:41;15.07;;;13.47;;
8462;SDS011;4268;52.506;13.462;2022-12-10T14:21:08;14.27;;;12.77;;
8462;SDS011;4268;52.506;13.462;2022-12-10T14:23:38;15.47;;;13.80;;
8462;SDS011;4268;52.506;13.462;2022-12-10T14:26:14;14.30;;;12.70;;
8462;SDS011;4268;52.506;13.462;2022-12-10T14:28:43;16.70;;;14.00;;
8462;SDS011;4268;52.506;13.462;2022-12-10T14:31:12;16.27;;;13.50;;
8462;SDS011;4268;52.506;13.462;2022-12-10T14:33:44;16.30;;;13.43;;
8462;SDS011;4268;52.506;13.462;2022-12-10T14:36:14;16.27;;;14.30;;
8462;SDS011;4268;52.506;13.462;2022-12-10T14:38:45;15.37;;;13.33;;
8462;SDS011;4268;52.506;13.462;2022-12-10T14:41:12;16.60;;;14.80;;
8462;SDS011;4268;52.506;13.462;2022-12-10T14:43:41;15.67;;;13.27;;
8462;SDS011;4268;52.506;13.462;2022-12-10T14:46:12;17.83;;;14.37;;
8462;SDS011;4268;52.506;13.462;2022-12-10T14:48:41;17.40;;;13.87;;
8462;SDS011;4268;52.506;13.462;2022-12-10T14:51:15;16.23;;;13.83;;
8462;SDS011;4268;52.506;13.462;2022-12-10T14:53:44;16.30;;;14.07;;
8462;SDS011;4268;52.506;13.462;2022-12-10T14:56:11;17.67;;;13.90;;
8462;SDS011;4268;52.506;13.462;2022-12-10T14:59:17;17.63;;;14.10;;
8462;SDS011;4268;52.506;13.462;2022-12-10T15:01:47;15.40;;;13.77;;
8462;SDS011;4268;52.506;13.462;2022-12-10T15:04:17;15.40;;;13.00;;
8462;SDS011;4268;52.506;13.462;2022-12-10T15:06:45;17.60;;;14.27;;
8462;SDS011;4268;52.506;13.462;2022-12-10T15:09:22;17.10;;;14.00;;
8462;SDS011;4268;52.506;13.462;2022-12-10T15:11:56;14.83;;;13.10;;
8462;SDS011;4268;52.506;13.462;2022-12-10T15:14:24;16.97;;;14.40;;
8462;SDS011;4268;52.506;13.462;2022-12-10T15:16:51;17.67;;;14.40;;
8462;SDS011;4268;52.506;13.462;2022-12-10T15:19:21;17.93;;;13.30;;
8462;SDS011;4268;52.506;13.462;2022-12-10T15:21:51;16.80;;;13.43;;
8462;SDS011;4268;52.506;13.462;2022-12-10T15:24:27;18.53;;;14.37;;
8462;SDS011;4268;52.506;13.462;2022-12-10T15:27:01;18.30;;;14.83;;
8462;SDS011;4268;52.506;13.462;2022-12-10T15:29:38;19.40;;;14.83;;
8462;SDS011;4268;52.506;13.462;2022-12-10T15:32:10;20.87;;;14.97;;
8462;SDS011;4268;52.506;13.462;2022-12-10T15:34:49;19.77;;;15.00;;
8462;SDS011;4268;52.506;13.462;2022-12-10T15:37:21;20.70;;;14.90;;
8462;SDS011;4268;52.506;13.462;2022-12-10T15:39:55;19.47;;;14.13;;
8462;SDS011;4268;52.506;13.462;2022-12-10T15:42:27;18.00;;;15.23;;
8462;SDS011;4268;52.506;13.462;2022-12-10T15:44:59;17.57;;;14.13;;
8462;SDS011;4268;52.506;13.462;2022-12-10T15:47:29;21.33;;;14.90;;
8462;SDS011;4268;52.506;13.462;2022-12-10T15:49:55;21.17;;;14.83;;
8462;SDS011;4268;52.506;13.462;2022-12-10T15:52:24;20.63;;;14.67;;
8462;SDS011;4268;52.506;13.462;2022-12-10T15:54:53;23.23;;;15.53;;
8462;SDS011;4268;52.506;13.462;2022-12-10T15:57:21;21.73;;;15.77;;
8462;SDS011;4268;52.506;13.462;2022-12-10T15:59:52;22.07;;;14.30;;
8462;SDS011;4268;52.506;13.462;2022-12-10T16:02:24;21.20;;;15.80;;
8462;SDS011;4268;52.506;13.462;2022-12-10T16:04:54;21.00;;;15.17;;
8462;SDS011;4268;52.506;13.462;2022-12-10T16:07:19;21.27;;;14.80;;
8462;SDS011;4268;52.506;13.462;2022-12-10T16:09:45;25.20;;;16.60;;
8462;SDS011;4268;52.506;13.462;2022-12-10T16:12:11;24.80;;;15.67;;
8462;SDS011;4268;52.506;13.462;2022-12-10T16:14:44;23.30;;;14.77;;
8462;SDS011;4268;52.506;13.462;2022-12-10T16:17:16;21.90;;;15.33;;
8462;SDS011;4268;52.506;13.462;2022-12-10T16:19:42;23.00;;;15.90;;
8462;SDS011;4268;52.506;13.462;2022-12-10T16:22:08;25.57;;;16.07;;
8462;SDS011;4268;52.506;13.462;2022-12-10T16:24:34;26.03;;;16.23;;
8462;SDS011;4268;52.506;13.462;2022-12-10T16:27:00;24.17;;;16.60;;
8462;SDS011;4268;52.506;13.462;2022-12-10T16:29:26;24.93;;;15.33;;
8462;SDS011;4268;52.506;13.462;2022-12-10T16:31:52;26.63;;;15.60;;
8462;SDS011;4268;52.506;13.462;2022-12-10T16:34:17;25.70;;;15.20;;
8462;SDS011;4268;52.506;13.462;2022-12-10T16:36:43;30.07;;;16.17;;